sensor_id;sensor_type;location;lat;lon;timestamp;temperature;humidity
18797;DHT22;9526;52.612;13.300;2023-06-26T00:00:23;19.40;99.90
18797;DHT22;9526;52.612;13.300;2023-06-26T00:02:46;19.30;99.90
18797;DHT22;9526;52.612;13.300;2023-06-26T00:05:10;19.30;99.90
18797;DHT22;9526;52.612;13.300;2023-06-26T00:07:35;19.30;99.90
18797;DHT22;9526;52.612;13.300;2023-06-26T00:10:00;19.30;99.90
18797;DHT22;9526;52.612;13.300;2023-06-26T00:12:25;19.30;99.90
18797;DHT22;9526;52.612;13.300;2023-06-26T00:14:49;19.20;99.90
18797;DHT22;9526;52.612;13.300;2023-06-26T00:17:12;19.20;99.90
18797;DHT22;9526;52.612;13.300;2023-06-26T00:19:36;19.20;99.90
18797;DHT22;9526;52.612;13.300;2023-06-26T00:22:00;19.10;99.90
18797;DHT22;9526;52.612;13.300;2023-06-26T00:24:23;19.10;99.90
18797;DHT22;9526;52.612;13.300;2023-06-26T00:26:49;19.10;99.90
18797;DHT22;9526;52.612;13.300;2023-06-26T00:29:13;19.10;99.90
18797;DHT22;9526;52.612;13.300;2023-06-26T00:31:36;19.10;99.90
18797;DHT22;9526;52.612;13.300;2023-06-26T00:34:02;19.10;99.90
18797;DHT22;9526;52.612;13.300;2023-06-26T00:36:26;19.10;99.90
18797;DHT22;9526;52.612;13.300;2023-06-26T00:38:49;19.00;99.90
18797;DHT22;9526;52.612;13.300;2023-06-26T00:41:13;19.00;99.90
18797;DHT22;9526;52.612;13.300;2023-06-26T00:43:40;19.00;99.90
18797;DHT22;9526;52.612;13.300;2023-06-26T00:46:05;19.00;99.90
18797;DHT22;9526;52.612;13.300;2023-06-26T00:48:32;19.00;99.90
18797;DHT22;9526;52.612;13.300;2023-06-26T00:50:56;19.00;99.90
18797;DHT22;9526;52.612;13.300;2023-06-26T00:53:20;19.00;99.90
18797;DHT22;9526;52.612;13.300;2023-06-26T00:55:45;19.00;99.90
18797;DHT22;9526;52.612;13.300;2023-06-26T00:58:09;19.00;99.90
18797;DHT22;9526;52.612;13.300;2023-06-26T01:00:35;19.10;99.90
18797;DHT22;9526;52.612;13.300;2023-06-26T01:02:59;19.10;99.90
18797;DHT22;9526;52.612;13.300;2023-06-26T01:05:23;19.10;99.90
18797;DHT22;9526;52.612;13.300;2023-06-26T01:07:47;19.10;99.90
18797;DHT22;9526;52.612;13.300;2023-06-26T01:10:14;19.10;99.90
18797;DHT22;9526;52.612;13.300;2023-06-26T01:12:38;19.20;99.90
18797;DHT22;9526;52.612;13.300;2023-06-26T01:15:03;19.20;99.90
18797;DHT22;9526;52.612;13.300;2023-06-26T01:17:29;19.20;99.90
18797;DHT22;9526;52.612;13.300;2023-06-26T01:19:53;19.20;99.90
18797;DHT22;9526;52.612;13.300;2023-06-26T01:22:23;19.20;99.90
18797;DHT22;9526;52.612;13.300;2023-06-26T01:25:01;19.30;99.90
18797;DHT22;9526;52.612;13.300;2023-06-26T01:27:42;19.20;99.90
18797;DHT22;9526;52.612;13.300;2023-06-26T01:30:08;19.30;99.90
18797;DHT22;9526;52.612;13.300;2023-06-26T01:32:33;19.30;99.90
18797;DHT22;9526;52.612;13.300;2023-06-26T01:34:58;19.30;99.90
18797;DHT22;9526;52.612;13.300;2023-06-26T01:37:24;19.30;99.90
18797;DHT22;9526;52.612;13.300;2023-06-26T01:39:48;19.30;99.90
18797;DHT22;9526;52.612;13.300;2023-06-26T01:42:13;19.30;99.90
18797;DHT22;9526;52.612;13.300;2023-06-26T01:44:43;19.30;99.90
18797;DHT22;9526;52.612;13.300;2023-06-26T01:47:10;19.30;99.90
18797;DHT22;9526;52.612;13.300;2023-06-26T01:49:46;19.30;99.90
18797;DHT22;9526;52.612;13.300;2023-06-26T01:52:16;19.40;99.90
18797;DHT22;9526;52.612;13.300;2023-06-26T01:54:58;19.40;99.90
18797;DHT22;9526;52.612;13.300;2023-06-26T01:57:26;19.40;99.90
18797;DHT22;9526;52.612;13.300;2023-06-26T01:59:54;19.40;99.90
18797;DHT22;9526;52.612;13.300;2023-06-26T02:02:18;19.40;99.90
18797;DHT22;9526;52.612;13.300;2023-06-26T02:04:42;19.40;99.90
18797;DHT22;9526;52.612;13.300;2023-06-26T02:07:06;19.40;99.90
18797;DHT22;9526;52.612;13.300;2023-06-26T02:09:31;19.40;99.90
18797;DHT22;9526;52.612;13.300;2023-06-26T02:11:55;19.50;99.90
18797;DHT22;9526;52.612;13.300;2023-06-26T02:14:20;19.50;99.90
18797;DHT22;9526;52.612;13.300;2023-06-26T02:16:45;19.50;99.90
18797;DHT22;9526;52.612;13.300;2023-06-26T02:19:09;19.50;99.90
18797;DHT22;9526;52.612;13.300;2023-06-26T02:21:33;19.50;99.90
18797;DHT22;9526;52.612;13.300;2023-06-26T02:23:57;19.40;99.90
18797;DHT22;9526;52.612;13.300;2023-06-26T02:26:21;19.50;99.90
18797;DHT22;9526;52.612;13.300;2023-06-26T02:28:45;19.50;99.90
18797;DHT22;9526;52.612;13.300;2023-06-26T02:31:09;19.40;99.90
18797;DHT22;9526;52.612;13.300;2023-06-26T02:33:34;19.40;99.90
18797;DHT22;9526;52.612;13.300;2023-06-26T02:35:57;19.40;99.90
18797;DHT22;9526;52.612;13.300;2023-06-26T02:38:21;19.40;99.90
18797;DHT22;9526;52.612;13.300;2023-06-26T02:40:45;19.40;99.90
18797;DHT22;9526;52.612;13.300;2023-06-26T02:43:10;19.30;99.90
18797;DHT22;9526;52.612;13.300;2023-06-26T02:45:34;19.30;99.90
18797;DHT22;9526;52.612;13.300;2023-06-26T02:47:58;19.30;99.90
18797;DHT22;9526;52.612;13.300;2023-06-26T02:50:23;19.30;99.90
18797;DHT22;9526;52.612;13.300;2023-06-26T02:53:02;19.30;99.90
18797;DHT22;9526;52.612;13.300;2023-06-26T02:55:26;19.20;99.90
18797;DHT22;9526;52.612;13.300;2023-06-26T02:57:50;19.20;99.90
18797;DHT22;9526;52.612;13.300;2023-06-26T03:00:15;19.20;99.90
18797;DHT22;9526;52.612;13.300;2023-06-26T03:02:43;19.20;99.90
18797;DHT22;9526;52.612;13.300;2023-06-26T03:05:10;19.10;99.90
18797;DHT22;9526;52.612;13.300;2023-06-26T03:07:36;19.10;99.90
18797;DHT22;9526;52.612;13.300;2023-06-26T03:10:00;19.10;99.90
18797;DHT22;9526;52.612;13.300;2023-06-26T03:12:25;19.00;99.90
18797;DHT22;9526;52.612;13.300;2023-06-26T03:14:48;19.00;99.90
18797;DHT22;9526;52.612;13.300;2023-06-26T03:17:12;19.00;99.90
18797;DHT22;9526;52.612;13.300;2023-06-26T03:19:38;19.00;99.90
18797;DHT22;9526;52.612;13.300;2023-06-26T03:22:12;19.00;99.90
18797;DHT22;9526;52.612;13.300;2023-06-26T03:24:38;19.00;99.90
18797;DHT22;9526;52.612;13.300;2023-06-26T03:27:01;18.90;99.90
18797;DHT22;9526;52.612;13.300;2023-06-26T03:29:26;18.90;99.90
18797;DHT22;9526;52.612;13.300;2023-06-26T03:31:51;18.90;99.90
18797;DHT22;9526;52.612;13.300;2023-06-26T03:34:16;18.90;99.90
18797;DHT22;9526;52.612;13.300;2023-06-26T03:36:39;18.90;99.90
18797;DHT22;9526;52.612;13.300;2023-06-26T03:39:03;18.90;99.90
18797;DHT22;9526;52.612;13.300;2023-06-26T03:41:28;18.90;99.90
18797;DHT22;9526;52.612;13.300;2023-06-26T03:43:52;18.90;99.90
18797;DHT22;9526;52.612;13.300;2023-06-26T03:46:21;18.90;99.90
18797;DHT22;9526;52.612;13.300;2023-06-26T03:48:45;18.90;99.90
18797;DHT22;9526;52.612;13.300;2023-06-26T03:51:08;18.90;99.90
18797;DHT22;9526;52.612;13.300;2023-06-26T03:53:33;18.90;99.90
18797;DHT22;9526;52.612;13.300;2023-06-26T03:55:57;18.90;99.90
18797;DHT22;9526;52.612;13.300;2023-06-26T03:58:22;18.90;99.90
18797;DHT22;9526;52.612;13.300;2023-06-26T04:00:47;18.90;99.90
18797;DHT22;9526;52.612;13.300;2023-06-26T04:03:11;19.00;99.90
18797;DHT22;9526;52.612;13.300;2023-06-26T04:05:36;19.00;99.90
18797;DHT22;9526;52.612;13.300;2023-06-26T04:08:00;19.00;99.90
18797;DHT22;9526;52.612;13.300;2023-06-26T04:10:24;19.00;99.90
18797;DHT22;9526;52.612;13.300;2023-06-26T04:12:49;19.10;99.90
18797;DHT22;9526;52.612;13.300;2023-06-26T04:15:14;19.10;99.90
18797;DHT22;9526;52.612;13.300;2023-06-26T04:17:38;19.20;99.90
18797;DHT22;9526;52.612;13.300;2023-06-26T04:20:01;19.20;99.90
18797;DHT22;9526;52.612;13.300;2023-06-26T04:22:28;19.30;99.90
18797;DHT22;9526;52.612;13.300;2023-06-26T04:24:52;19.30;99.90
18797;DHT22;9526;52.612;13.300;2023-06-26T04:27:16;19.40;99.90
18797;DHT22;9526;52.612;13.300;2023-06-26T04:29:39;19.40;99.90
18797;DHT22;9526;52.612;13.300;2023-06-26T04:32:05;19.50;99.90
18797;DHT22;9526;52.612;13.300;2023-06-26T04:34:29;19.60;99.90
18797;DHT22;9526;52.612;13.300;2023-06-26T04:36:54;19.60;99.90
18797;DHT22;9526;52.612;13.300;2023-06-26T04:39:18;19.70;99.90
18797;DHT22;9526;52.612;13.300;2023-06-26T04:41:42;19.80;99.90
18797;DHT22;9526;52.612;13.300;2023-06-26T04:44:05;19.90;99.90
18797;DHT22;9526;52.612;13.300;2023-06-26T04:46:29;19.90;99.90
18797;DHT22;9526;52.612;13.300;2023-06-26T04:48:54;20.00;99.90
18797;DHT22;9526;52.612;13.300;2023-06-26T04:51:20;20.10;99.90
18797;DHT22;9526;52.612;13.300;2023-06-26T04:53:44;20.20;99.90
18797;DHT22;9526;52.612;13.300;2023-06-26T04:56:07;20.30;99.90
18797;DHT22;9526;52.612;13.300;2023-06-26T04:58:32;20.40;99.90
18797;DHT22;9526;52.612;13.300;2023-06-26T05:00:56;20.40;99.90
18797;DHT22;9526;52.612;13.300;2023-06-26T05:03:21;20.60;99.90
18797;DHT22;9526;52.612;13.300;2023-06-26T05:05:47;20.70;99.90
18797;DHT22;9526;52.612;13.300;2023-06-26T05:08:14;20.80;99.90
18797;DHT22;9526;52.612;13.300;2023-06-26T05:10:38;21.00;99.90
18797;DHT22;9526;52.612;13.300;2023-06-26T05:13:02;21.20;99.90
18797;DHT22;9526;52.612;13.300;2023-06-26T05:15:26;21.30;99.90
18797;DHT22;9526;52.612;13.300;2023-06-26T05:17:50;21.50;99.90
18797;DHT22;9526;52.612;13.300;2023-06-26T05:20:14;21.70;99.90
18797;DHT22;9526;52.612;13.300;2023-06-26T05:22:39;21.90;99.90
18797;DHT22;9526;52.612;13.300;2023-06-26T05:25:05;22.00;99.90
18797;DHT22;9526;52.612;13.300;2023-06-26T05:27:30;22.10;99.90
18797;DHT22;9526;52.612;13.300;2023-06-26T05:29:54;22.20;99.90
18797;DHT22;9526;52.612;13.300;2023-06-26T05:32:19;22.30;99.90
18797;DHT22;9526;52.612;13.300;2023-06-26T05:34:43;22.40;99.90
18797;DHT22;9526;52.612;13.300;2023-06-26T05:37:09;22.50;99.90
18797;DHT22;9526;52.612;13.300;2023-06-26T05:39:35;22.50;99.90
18797;DHT22;9526;52.612;13.300;2023-06-26T05:41:59;22.60;99.90
18797;DHT22;9526;52.612;13.300;2023-06-26T05:44:25;22.60;99.90
18797;DHT22;9526;52.612;13.300;2023-06-26T05:46:48;22.70;99.90
18797;DHT22;9526;52.612;13.300;2023-06-26T05:49:12;22.80;99.90
18797;DHT22;9526;52.612;13.300;2023-06-26T05:51:37;22.90;99.90
18797;DHT22;9526;52.612;13.300;2023-06-26T05:54:01;23.00;99.90
18797;DHT22;9526;52.612;13.300;2023-06-26T05:56:28;23.20;99.90
18797;DHT22;9526;52.612;13.300;2023-06-26T05:58:52;23.40;99.90
18797;DHT22;9526;52.612;13.300;2023-06-26T06:01:16;23.60;99.90
18797;DHT22;9526;52.612;13.300;2023-06-26T06:03:41;23.90;99.90
18797;DHT22;9526;52.612;13.300;2023-06-26T06:06:05;24.20;99.90
18797;DHT22;9526;52.612;13.300;2023-06-26T06:08:28;24.60;99.90
18797;DHT22;9526;52.612;13.300;2023-06-26T06:10:52;25.00;99.90
18797;DHT22;9526;52.612;13.300;2023-06-26T06:13:17;25.20;99.90
18797;DHT22;9526;52.612;13.300;2023-06-26T06:15:41;25.60;99.90
18797;DHT22;9526;52.612;13.300;2023-06-26T06:18:05;25.90;99.90
18797;DHT22;9526;52.612;13.300;2023-06-26T06:20:29;26.20;99.90
18797;DHT22;9526;52.612;13.300;2023-06-26T06:22:52;26.60;99.90
18797;DHT22;9526;52.612;13.300;2023-06-26T06:25:16;26.80;99.90
18797;DHT22;9526;52.612;13.300;2023-06-26T06:27:40;27.30;99.90
18797;DHT22;9526;52.612;13.300;2023-06-26T06:30:06;27.80;99.90
18797;DHT22;9526;52.612;13.300;2023-06-26T06:32:31;28.00;99.90
18797;DHT22;9526;52.612;13.300;2023-06-26T06:34:55;28.40;99.90
18797;DHT22;9526;52.612;13.300;2023-06-26T06:37:19;28.60;99.90
18797;DHT22;9526;52.612;13.300;2023-06-26T06:39:43;28.90;99.90
18797;DHT22;9526;52.612;13.300;2023-06-26T06:42:07;29.20;99.90
18797;DHT22;9526;52.612;13.300;2023-06-26T06:44:31;29.60;99.90
18797;DHT22;9526;52.612;13.300;2023-06-26T06:46:56;30.10;99.90
18797;DHT22;9526;52.612;13.300;2023-06-26T06:49:19;30.30;99.90
18797;DHT22;9526;52.612;13.300;2023-06-26T06:51:43;30.50;99.90
18797;DHT22;9526;52.612;13.300;2023-06-26T06:54:07;30.70;99.90
18797;DHT22;9526;52.612;13.300;2023-06-26T06:56:31;30.90;99.90
18797;DHT22;9526;52.612;13.300;2023-06-26T06:58:54;31.10;99.90
18797;DHT22;9526;52.612;13.300;2023-06-26T07:01:18;30.80;99.90
18797;DHT22;9526;52.612;13.300;2023-06-26T07:03:43;30.80;99.90
18797;DHT22;9526;52.612;13.300;2023-06-26T07:06:08;30.80;99.90
18797;DHT22;9526;52.612;13.300;2023-06-26T07:08:33;30.80;99.90
18797;DHT22;9526;52.612;13.300;2023-06-26T07:10:57;30.40;99.90
18797;DHT22;9526;52.612;13.300;2023-06-26T07:13:20;30.30;99.90
18797;DHT22;9526;52.612;13.300;2023-06-26T07:15:45;30.00;99.90
18797;DHT22;9526;52.612;13.300;2023-06-26T07:18:10;30.10;99.90
18797;DHT22;9526;52.612;13.300;2023-06-26T07:20:35;30.10;99.90
18797;DHT22;9526;52.612;13.300;2023-06-26T07:22:59;29.90;99.90
18797;DHT22;9526;52.612;13.300;2023-06-26T07:25:23;29.80;99.90
18797;DHT22;9526;52.612;13.300;2023-06-26T07:27:46;29.50;99.90
18797;DHT22;9526;52.612;13.300;2023-06-26T07:30:10;29.30;99.90
18797;DHT22;9526;52.612;13.300;2023-06-26T07:32:35;29.20;99.90
18797;DHT22;9526;52.612;13.300;2023-06-26T07:34:58;29.10;99.90
18797;DHT22;9526;52.612;13.300;2023-06-26T07:37:23;29.00;99.90
18797;DHT22;9526;52.612;13.300;2023-06-26T07:39:47;28.90;99.90
18797;DHT22;9526;52.612;13.300;2023-06-26T07:42:12;28.80;99.90
18797;DHT22;9526;52.612;13.300;2023-06-26T07:44:36;28.50;99.90
18797;DHT22;9526;52.612;13.300;2023-06-26T07:46:59;28.40;99.90
18797;DHT22;9526;52.612;13.300;2023-06-26T07:49:23;28.40;99.90
18797;DHT22;9526;52.612;13.300;2023-06-26T07:51:47;28.30;99.90
18797;DHT22;9526;52.612;13.300;2023-06-26T07:54:12;28.30;99.90
18797;DHT22;9526;52.612;13.300;2023-06-26T07:56:52;28.30;99.90
18797;DHT22;9526;52.612;13.300;2023-06-26T07:59:17;28.10;99.90
18797;DHT22;9526;52.612;13.300;2023-06-26T08:01:41;27.90;99.90
18797;DHT22;9526;52.612;13.300;2023-06-26T08:04:05;27.90;99.90
18797;DHT22;9526;52.612;13.300;2023-06-26T08:06:29;27.90;99.90
18797;DHT22;9526;52.612;13.300;2023-06-26T08:08:53;27.90;99.90
18797;DHT22;9526;52.612;13.300;2023-06-26T08:11:18;27.80;99.90
18797;DHT22;9526;52.612;13.300;2023-06-26T08:13:41;27.70;99.90
18797;DHT22;9526;52.612;13.300;2023-06-26T08:16:05;27.70;99.90
18797;DHT22;9526;52.612;13.300;2023-06-26T08:18:29;27.70;99.90
18797;DHT22;9526;52.612;13.300;2023-06-26T08:20:53;27.80;99.90
18797;DHT22;9526;52.612;13.300;2023-06-26T08:23:16;27.80;99.90
18797;DHT22;9526;52.612;13.300;2023-06-26T08:25:40;27.80;99.90
18797;DHT22;9526;52.612;13.300;2023-06-26T08:28:05;27.70;99.90
18797;DHT22;9526;52.612;13.300;2023-06-26T08:30:29;27.70;99.90
18797;DHT22;9526;52.612;13.300;2023-06-26T08:32:52;27.70;99.90
18797;DHT22;9526;52.612;13.300;2023-06-26T08:35:16;27.60;99.90
18797;DHT22;9526;52.612;13.300;2023-06-26T08:37:40;27.50;99.90
18797;DHT22;9526;52.612;13.300;2023-06-26T08:40:05;27.50;99.90
18797;DHT22;9526;52.612;13.300;2023-06-26T08:42:31;27.50;99.90
18797;DHT22;9526;52.612;13.300;2023-06-26T08:44:57;27.60;99.90
18797;DHT22;9526;52.612;13.300;2023-06-26T08:47:23;27.60;99.90
18797;DHT22;9526;52.612;13.300;2023-06-26T08:49:53;27.60;99.90
18797;DHT22;9526;52.612;13.300;2023-06-26T08:52:22;27.60;99.90
18797;DHT22;9526;52.612;13.300;2023-06-26T08:54:54;27.70;99.90
18797;DHT22;9526;52.612;13.300;2023-06-26T08:57:21;27.70;99.90
18797;DHT22;9526;52.612;13.300;2023-06-26T08:59:47;27.60;99.90
18797;DHT22;9526;52.612;13.300;2023-06-26T09:02:12;27.70;99.90
18797;DHT22;9526;52.612;13.300;2023-06-26T09:04:37;27.70;99.90
18797;DHT22;9526;52.612;13.300;2023-06-26T09:07:00;27.70;99.90
18797;DHT22;9526;52.612;13.300;2023-06-26T09:09:24;27.70;99.90
18797;DHT22;9526;52.612;13.300;2023-06-26T09:11:48;27.70;99.90
18797;DHT22;9526;52.612;13.300;2023-06-26T09:14:12;27.70;99.90
18797;DHT22;9526;52.612;13.300;2023-06-26T09:16:40;27.70;99.90
18797;DHT22;9526;52.612;13.300;2023-06-26T09:19:09;27.80;99.90
18797;DHT22;9526;52.612;13.300;2023-06-26T09:21:33;27.90;99.90
18797;DHT22;9526;52.612;13.300;2023-06-26T09:23:58;27.90;99.90
18797;DHT22;9526;52.612;13.300;2023-06-26T09:26:22;27.90;99.40
18797;DHT22;9526;52.612;13.300;2023-06-26T09:28:46;27.90;99.80
18797;DHT22;9526;52.612;13.300;2023-06-26T09:31:12;28.00;99.90
18797;DHT22;9526;52.612;13.300;2023-06-26T09:33:57;27.90;99.90
18797;DHT22;9526;52.612;13.300;2023-06-26T09:36:23;27.90;99.90
18797;DHT22;9526;52.612;13.300;2023-06-26T09:38:47;28.00;98.90
18797;DHT22;9526;52.612;13.300;2023-06-26T09:41:10;28.10;99.90
18797;DHT22;9526;52.612;13.300;2023-06-26T09:43:34;28.10;98.70
18797;DHT22;9526;52.612;13.300;2023-06-26T09:46:09;28.20;99.50
18797;DHT22;9526;52.612;13.300;2023-06-26T09:48:33;28.30;99.00
18797;DHT22;9526;52.612;13.300;2023-06-26T09:51:00;28.30;99.10
18797;DHT22;9526;52.612;13.300;2023-06-26T09:53:36;28.40;99.90
18797;DHT22;9526;52.612;13.300;2023-06-26T09:56:05;28.40;99.90
18797;DHT22;9526;52.612;13.300;2023-06-26T09:58:30;28.50;99.90
18797;DHT22;9526;52.612;13.300;2023-06-26T10:00:53;28.50;98.80
18797;DHT22;9526;52.612;13.300;2023-06-26T10:03:17;28.50;99.00
18797;DHT22;9526;52.612;13.300;2023-06-26T10:05:41;28.60;99.30
18797;DHT22;9526;52.612;13.300;2023-06-26T10:08:07;28.70;99.90
18797;DHT22;9526;52.612;13.300;2023-06-26T10:10:33;28.70;99.30
18797;DHT22;9526;52.612;13.300;2023-06-26T10:13:03;28.80;99.20
18797;DHT22;9526;52.612;13.300;2023-06-26T10:15:30;28.90;98.10
18797;DHT22;9526;52.612;13.300;2023-06-26T10:17:56;29.10;99.30
18797;DHT22;9526;52.612;13.300;2023-06-26T10:20:21;29.20;98.40
18797;DHT22;9526;52.612;13.300;2023-06-26T10:22:46;29.40;97.90
18797;DHT22;9526;52.612;13.300;2023-06-26T10:25:10;29.60;98.50
18797;DHT22;9526;52.612;13.300;2023-06-26T10:27:41;29.90;97.30
18797;DHT22;9526;52.612;13.300;2023-06-26T10:30:11;30.00;97.40
18797;DHT22;9526;52.612;13.300;2023-06-26T10:32:37;30.20;97.40
18797;DHT22;9526;52.612;13.300;2023-06-26T10:35:02;30.50;97.10
18797;DHT22;9526;52.612;13.300;2023-06-26T10:37:41;30.50;96.20
18797;DHT22;9526;52.612;13.300;2023-06-26T10:40:07;30.60;96.70
18797;DHT22;9526;52.612;13.300;2023-06-26T10:42:35;30.70;95.80
18797;DHT22;9526;52.612;13.300;2023-06-26T10:45:09;30.80;95.60
18797;DHT22;9526;52.612;13.300;2023-06-26T10:47:34;31.00;96.50
18797;DHT22;9526;52.612;13.300;2023-06-26T10:50:17;31.20;96.00
18797;DHT22;9526;52.612;13.300;2023-06-26T10:52:45;31.50;97.10
18797;DHT22;9526;52.612;13.300;2023-06-26T10:55:08;31.80;96.90
18797;DHT22;9526;52.612;13.300;2023-06-26T10:57:32;31.90;94.60
18797;DHT22;9526;52.612;13.300;2023-06-26T11:00:18;32.00;97.70
18797;DHT22;9526;52.612;13.300;2023-06-26T11:02:48;32.10;95.30
18797;DHT22;9526;52.612;13.300;2023-06-26T11:05:23;32.40;95.60
18797;DHT22;9526;52.612;13.300;2023-06-26T11:08:03;32.40;94.10
18797;DHT22;9526;52.612;13.300;2023-06-26T11:10:29;32.90;94.20
18797;DHT22;9526;52.612;13.300;2023-06-26T11:12:54;33.20;93.80
18797;DHT22;9526;52.612;13.300;2023-06-26T11:15:21;33.40;95.50
18797;DHT22;9526;52.612;13.300;2023-06-26T11:17:45;33.70;95.70
18797;DHT22;9526;52.612;13.300;2023-06-26T11:20:11;33.40;91.80
18797;DHT22;9526;52.612;13.300;2023-06-26T11:22:37;33.70;96.10
18797;DHT22;9526;52.612;13.300;2023-06-26T11:25:03;33.90;94.40
18797;DHT22;9526;52.612;13.300;2023-06-26T11:27:31;34.10;92.80
18797;DHT22;9526;52.612;13.300;2023-06-26T11:29:56;34.10;94.40
18797;DHT22;9526;52.612;13.300;2023-06-26T11:32:20;34.50;95.30
18797;DHT22;9526;52.612;13.300;2023-06-26T11:34:44;34.40;89.80
18797;DHT22;9526;52.612;13.300;2023-06-26T11:37:08;33.90;90.70
18797;DHT22;9526;52.612;13.300;2023-06-26T11:39:32;33.90;92.80
18797;DHT22;9526;52.612;13.300;2023-06-26T11:41:56;34.30;91.70
18797;DHT22;9526;52.612;13.300;2023-06-26T11:44:21;34.30;90.70
18797;DHT22;9526;52.612;13.300;2023-06-26T11:46:47;34.70;91.00
18797;DHT22;9526;52.612;13.300;2023-06-26T11:49:11;34.80;88.90
18797;DHT22;9526;52.612;13.300;2023-06-26T11:51:35;35.00;91.70
18797;DHT22;9526;52.612;13.300;2023-06-26T11:54:01;35.10;87.80
18797;DHT22;9526;52.612;13.300;2023-06-26T11:56:26;35.00;90.20
18797;DHT22;9526;52.612;13.300;2023-06-26T11:58:58;35.30;92.30
18797;DHT22;9526;52.612;13.300;2023-06-26T12:01:24;35.40;90.60
18797;DHT22;9526;52.612;13.300;2023-06-26T12:03:50;35.60;91.00
18797;DHT22;9526;52.612;13.300;2023-06-26T12:06:14;35.80;84.00
18797;DHT22;9526;52.612;13.300;2023-06-26T12:08:38;35.60;86.80
18797;DHT22;9526;52.612;13.300;2023-06-26T12:11:03;35.20;84.70
18797;DHT22;9526;52.612;13.300;2023-06-26T12:13:28;35.30;91.10
18797;DHT22;9526;52.612;13.300;2023-06-26T12:15:52;35.20;83.00
18797;DHT22;9526;52.612;13.300;2023-06-26T12:18:16;35.30;90.20
18797;DHT22;9526;52.612;13.300;2023-06-26T12:20:41;35.50;91.00
18797;DHT22;9526;52.612;13.300;2023-06-26T12:23:11;35.80;90.60
18797;DHT22;9526;52.612;13.300;2023-06-26T12:25:35;35.70;85.80
18797;DHT22;9526;52.612;13.300;2023-06-26T12:27:59;35.40;82.00
18797;DHT22;9526;52.612;13.300;2023-06-26T12:30:23;35.30;82.70
18797;DHT22;9526;52.612;13.300;2023-06-26T12:32:47;35.50;90.70
18797;DHT22;9526;52.612;13.300;2023-06-26T12:35:10;35.60;81.60
18797;DHT22;9526;52.612;13.300;2023-06-26T12:37:38;35.80;90.40
18797;DHT22;9526;52.612;13.300;2023-06-26T12:40:05;36.20;90.80
18797;DHT22;9526;52.612;13.300;2023-06-26T12:42:39;35.90;83.40
18797;DHT22;9526;52.612;13.300;2023-06-26T12:45:11;36.20;87.20
18797;DHT22;9526;52.612;13.300;2023-06-26T12:47:53;36.50;79.90
18797;DHT22;9526;52.612;13.300;2023-06-26T12:50:18;36.60;85.30
18797;DHT22;9526;52.612;13.300;2023-06-26T12:52:44;36.40;81.00
18797;DHT22;9526;52.612;13.300;2023-06-26T12:55:08;35.90;77.30
18797;DHT22;9526;52.612;13.300;2023-06-26T12:57:32;35.60;84.00
18797;DHT22;9526;52.612;13.300;2023-06-26T12:59:56;35.60;80.00
18797;DHT22;9526;52.612;13.300;2023-06-26T13:02:24;35.10;83.70
18797;DHT22;9526;52.612;13.300;2023-06-26T13:04:48;35.00;81.50
18797;DHT22;9526;52.612;13.300;2023-06-26T13:07:12;35.00;87.30
18797;DHT22;9526;52.612;13.300;2023-06-26T13:09:37;34.80;82.30
18797;DHT22;9526;52.612;13.300;2023-06-26T13:12:03;34.40;85.00
18797;DHT22;9526;52.612;13.300;2023-06-26T13:14:30;34.40;82.30
18797;DHT22;9526;52.612;13.300;2023-06-26T13:16:54;34.60;89.10
18797;DHT22;9526;52.612;13.300;2023-06-26T13:19:17;34.30;85.40
18797;DHT22;9526;52.612;13.300;2023-06-26T13:21:41;33.80;84.40
18797;DHT22;9526;52.612;13.300;2023-06-26T13:24:05;33.40;83.60
18797;DHT22;9526;52.612;13.300;2023-06-26T13:26:31;33.20;86.00
18797;DHT22;9526;52.612;13.300;2023-06-26T13:28:59;33.00;84.80
18797;DHT22;9526;52.612;13.300;2023-06-26T13:31:23;32.80;86.40
18797;DHT22;9526;52.612;13.300;2023-06-26T13:33:47;32.80;88.30
18797;DHT22;9526;52.612;13.300;2023-06-26T13:36:12;32.60;90.20
18797;DHT22;9526;52.612;13.300;2023-06-26T13:38:35;32.50;91.20
18797;DHT22;9526;52.612;13.300;2023-06-26T13:40:59;32.30;91.10
18797;DHT22;9526;52.612;13.300;2023-06-26T13:43:25;32.30;90.40
18797;DHT22;9526;52.612;13.300;2023-06-26T13:45:50;32.20;88.90
18797;DHT22;9526;52.612;13.300;2023-06-26T13:48:14;32.20;91.20
18797;DHT22;9526;52.612;13.300;2023-06-26T13:50:39;32.20;93.30
18797;DHT22;9526;52.612;13.300;2023-06-26T13:53:16;32.10;91.60
18797;DHT22;9526;52.612;13.300;2023-06-26T13:55:40;32.00;90.40
18797;DHT22;9526;52.612;13.300;2023-06-26T13:58:04;31.90;90.80
18797;DHT22;9526;52.612;13.300;2023-06-26T14:00:29;31.80;92.50
18797;DHT22;9526;52.612;13.300;2023-06-26T14:02:53;31.50;91.60
18797;DHT22;9526;52.612;13.300;2023-06-26T14:05:18;31.50;93.20
18797;DHT22;9526;52.612;13.300;2023-06-26T14:07:55;31.50;92.80
18797;DHT22;9526;52.612;13.300;2023-06-26T14:10:21;31.00;91.50
18797;DHT22;9526;52.612;13.300;2023-06-26T14:12:45;30.50;93.20
18797;DHT22;9526;52.612;13.300;2023-06-26T14:15:10;29.90;94.60
18797;DHT22;9526;52.612;13.300;2023-06-26T14:17:36;29.10;98.10
18797;DHT22;9526;52.612;13.300;2023-06-26T14:20:02;28.60;99.60
18797;DHT22;9526;52.612;13.300;2023-06-26T14:22:35;27.90;99.90
18797;DHT22;9526;52.612;13.300;2023-06-26T14:24:59;27.40;99.90
18797;DHT22;9526;52.612;13.300;2023-06-26T14:27:24;26.70;99.90
18797;DHT22;9526;52.612;13.300;2023-06-26T14:29:47;26.30;99.90
18797;DHT22;9526;52.612;13.300;2023-06-26T14:32:11;26.00;99.90
18797;DHT22;9526;52.612;13.300;2023-06-26T14:34:37;25.90;99.90
18797;DHT22;9526;52.612;13.300;2023-06-26T14:37:01;25.60;99.90
18797;DHT22;9526;52.612;13.300;2023-06-26T14:39:24;25.30;99.90
18797;DHT22;9526;52.612;13.300;2023-06-26T14:41:49;25.10;99.90
18797;DHT22;9526;52.612;13.300;2023-06-26T14:44:13;25.00;99.90
18797;DHT22;9526;52.612;13.300;2023-06-26T14:46:37;24.60;99.90
18797;DHT22;9526;52.612;13.300;2023-06-26T14:49:01;24.30;99.90
18797;DHT22;9526;52.612;13.300;2023-06-26T14:51:27;24.10;99.90
18797;DHT22;9526;52.612;13.300;2023-06-26T14:53:51;24.20;99.90
18797;DHT22;9526;52.612;13.300;2023-06-26T14:56:15;24.00;99.90
18797;DHT22;9526;52.612;13.300;2023-06-26T14:58:38;24.00;99.90
18797;DHT22;9526;52.612;13.300;2023-06-26T15:01:02;23.90;99.90
18797;DHT22;9526;52.612;13.300;2023-06-26T15:03:26;23.40;99.90
18797;DHT22;9526;52.612;13.300;2023-06-26T15:05:50;23.00;99.90
18797;DHT22;9526;52.612;13.300;2023-06-26T15:08:16;22.50;99.90
18797;DHT22;9526;52.612;13.300;2023-06-26T15:10:40;22.00;99.90
18797;DHT22;9526;52.612;13.300;2023-06-26T15:13:04;21.90;99.90
18797;DHT22;9526;52.612;13.300;2023-06-26T15:15:28;21.80;99.90
18797;DHT22;9526;52.612;13.300;2023-06-26T15:17:52;21.70;99.90